createdAt,value
2019-06-08T00:00:26.961Z,1.27
2019-06-08T00:02:55.429Z,1.20
2019-06-08T00:05:23.892Z,1.20
2019-06-08T00:07:52.356Z,0.90
2019-06-08T00:10:23.633Z,1.20
2019-06-08T00:12:51.463Z,1.20
2019-06-08T00:15:20.313Z,1.00
2019-06-08T00:17:49.159Z,1.23
2019-06-08T00:20:18.131Z,1.20
2019-06-08T00:22:46.648Z,1.10
2019-06-08T00:25:15.814Z,1.03
2019-06-08T00:27:44.566Z,1.13
2019-06-08T00:30:14.577Z,1.10
2019-06-08T00:32:43.313Z,1.20
2019-06-08T00:35:11.866Z,1.43
2019-06-08T00:37:40.325Z,1.70
2019-06-08T00:40:14.757Z,1.20
2019-06-08T00:42:42.539Z,1.20
2019-06-08T00:45:15.297Z,1.30
2019-06-08T00:51:04.599Z,1.10
2019-06-08T00:53:33.321Z,1.40
2019-06-08T00:56:01.890Z,1.00
2019-06-08T00:58:30.628Z,1.00
2019-06-08T01:00:59.267Z,1.03
2019-06-08T01:03:27.855Z,1.00
2019-06-08T01:05:56.529Z,1.30
2019-06-08T01:08:25.540Z,1.10
2019-06-08T01:10:54.254Z,1.73
2019-06-08T01:13:22.957Z,1.10
2019-06-08T01:15:51.426Z,1.17
2019-06-08T01:18:22.128Z,1.00
2019-06-08T01:20:50.282Z,1.10
2019-06-08T01:23:19.520Z,1.10
2019-06-08T01:25:48.054Z,0.93
2019-06-08T01:28:16.519Z,1.37
2019-06-08T01:30:46.716Z,1.20
2019-06-08T01:33:15.384Z,0.93
2019-06-08T01:35:48.604Z,1.30
2019-06-08T01:38:19.034Z,1.30
2019-06-08T01:40:47.650Z,1.20
2019-06-08T01:43:16.294Z,1.13
2019-06-08T01:46:42.236Z,1.20
2019-06-08T01:49:11.123Z,1.10
2019-06-08T01:52:28.944Z,1.30
2019-06-08T01:55:01.485Z,1.03
2019-06-08T01:58:23.264Z,1.23
2019-06-08T02:03:19.601Z,1.10
2019-06-08T02:06:06.182Z,1.20
2019-06-08T02:08:38.741Z,1.00
2019-06-08T02:11:17.498Z,1.47
2019-06-08T02:13:55.949Z,1.40
2019-06-08T02:19:40.166Z,1.00
2019-06-08T02:22:16.846Z,1.00
2019-06-08T02:28:00.585Z,1.40
2019-06-08T02:30:42.082Z,1.27
2019-06-08T02:33:03.492Z,2.10
2019-06-08T02:35:35.921Z,1.07
2019-06-08T02:38:14.435Z,1.10
2019-06-08T02:40:51.800Z,1.43
2019-06-08T02:43:20.635Z,1.00
2019-06-08T02:45:49.271Z,1.50
2019-06-08T02:48:18.129Z,0.90
2019-06-08T02:50:55.394Z,1.10
2019-06-08T02:56:34.108Z,1.13
2019-06-08T02:59:06.182Z,1.10
2019-06-08T03:01:38.763Z,1.33
2019-06-08T03:04:07.277Z,1.10
2019-06-08T03:06:39.410Z,1.10
2019-06-08T03:09:08.582Z,1.47
2019-06-08T03:11:38.979Z,1.40
2019-06-08T03:14:07.714Z,0.97
2019-06-08T03:16:38.396Z,1.23
2019-06-08T03:19:20.630Z,1.33
2019-06-08T03:21:38.414Z,1.27
2019-06-08T03:24:07.260Z,1.27
2019-06-08T03:26:36.728Z,1.37
2019-06-08T03:29:11.753Z,1.40
2019-06-08T03:31:51.618Z,1.00
2019-06-08T03:34:10.650Z,1.07
2019-06-08T03:36:53.646Z,1.10
2019-06-08T03:39:13.207Z,2.30
2019-06-08T03:41:52.583Z,1.23
2019-06-08T03:44:24.941Z,1.00
2019-06-08T03:46:53.332Z,1.10
2019-06-08T03:49:40.266Z,1.10
2019-06-08T03:51:52.313Z,1.30
2019-06-08T03:54:21.988Z,1.17
2019-06-08T03:56:51.886Z,1.10
2019-06-08T03:59:20.416Z,1.10
2019-06-08T04:01:49.971Z,1.03
2019-06-08T04:04:18.591Z,1.03
2019-06-08T04:06:47.141Z,1.00
2019-06-08T04:09:15.673Z,0.93
2019-06-08T04:11:46.716Z,1.20
2019-06-08T04:14:14.653Z,1.20
2019-06-08T04:16:44.475Z,1.23
2019-06-08T04:19:13.386Z,1.47
2019-06-08T04:21:41.893Z,1.27
2019-06-08T04:24:10.383Z,1.37
2019-06-08T04:26:40.514Z,1.33
2019-06-08T04:29:09.155Z,1.07
2019-06-08T04:31:37.870Z,1.00
2019-06-08T04:34:06.877Z,1.20
2019-06-08T04:36:35.359Z,1.10
2019-06-08T04:39:05.855Z,1.20
2019-06-08T04:41:34.390Z,1.20
2019-06-08T04:44:02.982Z,1.40
2019-06-08T04:46:31.528Z,1.30
2019-06-08T04:49:00.046Z,1.20
2019-06-08T04:51:28.496Z,1.13
2019-06-08T04:53:56.965Z,1.30
2019-06-08T04:56:25.502Z,1.13
2019-06-08T04:58:54.221Z,1.37
2019-06-08T05:01:22.658Z,1.30
2019-06-08T05:03:51.338Z,1.37
2019-06-08T05:06:19.926Z,1.50
2019-06-08T05:08:49.471Z,1.20
2019-06-08T05:11:18.400Z,1.27
2019-06-08T05:13:47.613Z,1.33
2019-06-08T05:16:16.332Z,1.50
2019-06-08T05:18:45.297Z,1.13
2019-06-08T05:21:13.894Z,1.27
2019-06-08T05:23:43.407Z,1.53
2019-06-08T05:26:12.036Z,1.40
2019-06-08T05:28:41.242Z,1.30
2019-06-08T05:31:09.791Z,1.40
2019-06-08T05:33:41.359Z,1.30
2019-06-08T05:36:10.015Z,1.40
2019-06-08T05:38:41.585Z,1.43
2019-06-08T05:41:10.202Z,1.60
2019-06-08T05:43:39.729Z,1.30
2019-06-08T05:46:08.616Z,1.70
2019-06-08T05:48:37.152Z,1.77
2019-06-08T05:51:05.699Z,1.17
2019-06-08T05:53:34.244Z,2.93
2019-06-08T05:56:02.716Z,1.43
2019-06-08T05:58:31.195Z,1.40
2019-06-08T06:00:59.645Z,1.70
2019-06-08T06:03:28.150Z,1.40
2019-06-08T06:05:58.189Z,1.37
2019-06-08T06:08:26.705Z,1.63
2019-06-08T06:10:56.796Z,1.77
2019-06-08T06:13:25.373Z,1.63
2019-06-08T06:15:53.945Z,1.70
2019-06-08T06:18:22.496Z,1.67
2019-06-08T06:20:51.510Z,1.53
2019-06-08T06:23:20.289Z,1.60
2019-06-08T06:25:49.638Z,1.60
2019-06-08T06:28:18.207Z,1.67
2019-06-08T06:30:48.333Z,1.60
2019-06-08T06:33:18.630Z,1.73
2019-06-08T06:35:47.857Z,2.17
2019-06-08T06:38:16.459Z,1.80
2019-06-08T06:40:47.974Z,1.73
2019-06-08T06:43:16.849Z,2.00
2019-06-08T06:45:46.060Z,2.20
2019-06-08T06:48:14.946Z,2.10
2019-06-08T06:51:07.647Z,2.00
2019-06-08T06:53:36.136Z,2.00
2019-06-08T06:56:06.660Z,1.90
2019-06-08T06:58:38.393Z,1.60
2019-06-08T07:01:08.599Z,1.90
2019-06-08T07:03:54.370Z,2.00
2019-06-08T07:06:21.904Z,2.10
2019-06-08T07:08:52.775Z,1.83
2019-06-08T07:11:22.468Z,1.67
2019-06-08T07:13:55.043Z,1.93
2019-06-08T07:16:28.885Z,1.70
2019-06-08T07:19:07.499Z,1.80
2019-06-08T07:21:48.346Z,1.73
2019-06-08T07:24:35.833Z,1.60
2019-06-08T07:27:30.175Z,1.60
2019-06-08T07:29:59.049Z,1.80
2019-06-08T07:32:29.402Z,1.80
2019-06-08T07:34:59.341Z,2.00
2019-06-08T07:37:28.029Z,2.10
2019-06-08T07:39:56.648Z,1.53
2019-06-08T07:42:31.651Z,1.60
2019-06-08T07:45:00.217Z,1.40
2019-06-08T07:47:45.816Z,1.30
2019-06-08T07:50:16.123Z,1.40
2019-06-08T07:52:46.202Z,1.43
2019-06-08T07:55:19.293Z,1.27
2019-06-08T07:57:49.191Z,1.70
2019-06-08T08:00:24.037Z,1.60
2019-06-08T08:02:52.533Z,1.77
2019-06-08T08:05:20.979Z,1.77
2019-06-08T08:07:50.249Z,1.40
2019-06-08T08:10:22.132Z,1.60
2019-06-08T08:13:03.248Z,1.47
2019-06-08T08:15:36.038Z,1.33
2019-06-08T08:18:04.699Z,1.43
2019-06-08T08:20:33.192Z,1.60
2019-06-08T08:23:06.929Z,1.70
2019-06-08T08:25:37.772Z,1.87
2019-06-08T08:28:08.213Z,1.40
2019-06-08T08:30:37.649Z,1.43
2019-06-08T08:33:07.776Z,1.23
2019-06-08T08:35:38.130Z,1.60
2019-06-08T08:38:07.554Z,1.57
2019-06-08T08:40:38.793Z,1.37
2019-06-08T08:43:09.379Z,1.37
2019-06-08T08:45:41.436Z,1.77
2019-06-08T08:48:21.513Z,1.40
2019-06-08T08:50:40.362Z,1.50
2019-06-08T08:53:09.082Z,1.47
2019-06-08T08:55:38.014Z,1.40
2019-06-08T08:58:13.086Z,1.13
2019-06-08T09:00:41.804Z,1.60
2019-06-08T09:03:24.675Z,3.10
2019-06-08T09:05:41.747Z,1.43
2019-06-08T09:08:10.176Z,1.50
2019-06-08T09:10:38.695Z,1.70
2019-06-08T09:13:09.202Z,2.00
2019-06-08T09:15:37.845Z,1.57
2019-06-08T09:18:08.087Z,1.37
2019-06-08T09:20:38.053Z,1.27
2019-06-08T09:23:14.940Z,1.53
2019-06-08T09:25:37.365Z,1.43
2019-06-08T09:28:08.439Z,1.30
2019-06-08T09:30:38.476Z,1.60
2019-06-08T09:33:07.959Z,1.33
2019-06-08T09:35:37.854Z,1.50
2019-06-08T09:38:08.575Z,1.67
2019-06-08T09:40:38.607Z,1.33
2019-06-08T09:43:12.291Z,1.53
2019-06-08T09:45:38.657Z,1.50
2019-06-08T09:48:09.257Z,1.70
2019-06-08T09:50:38.586Z,1.50
2019-06-08T09:53:23.298Z,1.20
2019-06-08T09:55:38.265Z,1.10
2019-06-08T09:58:11.242Z,1.30
2019-06-08T10:00:38.112Z,1.40
2019-06-08T10:03:09.309Z,1.50
2019-06-08T10:05:40.088Z,1.20
2019-06-08T10:08:11.125Z,1.40
2019-06-08T10:10:39.642Z,1.30
2019-06-08T10:13:14.748Z,1.33
2019-06-08T10:15:43.241Z,1.50
2019-06-08T10:18:19.774Z,1.60
2019-06-08T10:20:48.375Z,1.60
2019-06-08T10:23:48.329Z,1.23
2019-06-08T10:32:38.318Z,1.40
2019-06-08T10:35:10.394Z,1.50
2019-06-08T10:37:38.623Z,1.33
2019-06-08T10:40:07.973Z,1.40
2019-06-08T10:42:39.856Z,1.20
2019-06-08T10:45:12.644Z,1.77
2019-06-08T10:47:38.415Z,1.50
2019-06-08T10:50:14.688Z,1.90
2019-06-08T10:52:40.247Z,1.90
2019-06-08T10:55:11.613Z,1.23
2019-06-08T10:57:41.324Z,1.30
2019-06-08T11:00:22.754Z,1.60
2019-06-08T11:02:45.469Z,1.33
2019-06-08T11:05:28.126Z,1.67
2019-06-08T11:08:04.496Z,1.40
2019-06-08T11:10:59.988Z,1.80
2019-06-08T11:13:40.515Z,1.50
2019-06-08T11:16:18.453Z,2.00
2019-06-08T11:21:52.371Z,1.53
2019-06-08T11:24:38.797Z,1.50
2019-06-08T11:27:05.573Z,1.70
2019-06-08T14:48:38.711Z,1.17
2019-06-08T14:51:08.792Z,1.13
2019-06-08T14:53:38.719Z,1.10
2019-06-08T14:56:21.022Z,1.20
2019-06-08T14:58:49.912Z,1.20
2019-06-08T15:01:20.079Z,1.20
2019-06-08T15:03:48.895Z,1.40
2019-06-08T15:06:17.938Z,1.20
2019-06-08T15:08:50.127Z,1.33
2019-06-08T15:11:18.026Z,1.10
2019-06-08T15:14:11.185Z,1.00
2019-06-08T15:16:41.791Z,1.50
2019-06-08T15:19:09.904Z,1.13
2019-06-08T15:21:39.927Z,1.00
2019-06-08T15:24:11.636Z,1.23
2019-06-08T15:26:58.311Z,0.97
2019-06-08T15:29:30.955Z,1.00
2019-06-08T15:32:08.091Z,0.90
2019-06-08T15:34:38.294Z,1.10
2019-06-08T15:37:15.169Z,1.10
2019-06-08T15:39:48.645Z,1.30
2019-06-08T15:42:28.720Z,1.80
2019-06-08T15:44:59.456Z,1.20
2019-06-08T15:47:26.872Z,1.27
2019-06-08T15:49:58.401Z,1.00
2019-06-08T15:52:27.136Z,1.37
2019-06-08T15:54:59.025Z,1.20
2019-06-08T15:57:29.584Z,0.90
2019-06-08T15:59:58.544Z,1.40
2019-06-08T16:02:27.350Z,0.97
2019-06-08T16:04:56.227Z,1.00
2019-06-08T16:07:28.532Z,1.03
2019-06-08T16:09:54.897Z,1.37
2019-06-08T16:12:24.251Z,1.30
2019-06-08T16:14:52.881Z,0.97
2019-06-08T16:17:21.353Z,1.00
2019-06-08T16:19:53.011Z,1.33
2019-06-08T16:22:19.981Z,1.00
2019-06-08T16:24:48.470Z,1.10
2019-06-08T16:27:17.020Z,1.07
2019-06-08T16:29:45.812Z,1.27
2019-06-08T16:32:14.281Z,1.17
2019-06-08T16:34:42.783Z,0.90
2019-06-08T16:37:11.306Z,1.40
2019-06-08T16:39:39.863Z,1.13
2019-06-08T16:42:08.308Z,1.47
2019-06-08T16:44:36.833Z,1.80
2019-06-08T16:47:05.487Z,1.10
2019-06-08T16:49:33.934Z,1.07
2019-06-08T16:52:02.463Z,1.60
2019-06-08T16:54:31.135Z,1.60
2019-06-08T16:57:09.421Z,1.07
2019-06-08T16:59:30.216Z,1.00
2019-06-08T17:01:58.826Z,1.30
2019-06-08T17:04:27.335Z,1.77
2019-06-08T17:06:55.881Z,1.23
2019-06-08T17:09:24.317Z,1.53
2019-06-08T17:11:52.784Z,1.13
2019-06-08T17:14:24.685Z,1.03
2019-06-08T17:16:53.070Z,1.20
2019-06-08T17:19:21.602Z,1.20
2019-06-08T17:21:50.095Z,1.10
2019-06-08T17:24:18.538Z,1.10
2019-06-08T17:26:46.997Z,1.13
2019-06-08T17:29:15.540Z,1.00
2019-06-08T17:31:44.018Z,1.20
2019-06-08T17:34:12.450Z,1.40
2019-06-08T17:36:40.905Z,1.67
2019-06-08T17:39:09.418Z,1.33
2019-06-08T17:41:38.217Z,1.50
2019-06-08T17:44:06.893Z,1.70
2019-06-08T17:46:36.542Z,1.60
2019-06-08T17:49:05.310Z,1.40
2019-06-08T17:51:34.747Z,1.50
2019-06-08T17:54:03.316Z,1.40
2019-06-08T17:56:32.958Z,1.70
2019-06-08T17:59:01.468Z,1.50
2019-06-08T18:01:30.116Z,1.40
2019-06-08T18:03:58.647Z,1.30
2019-06-08T18:06:27.253Z,1.63
2019-06-08T18:08:55.760Z,1.70
2019-06-08T18:11:24.198Z,1.83
2019-06-08T18:13:52.653Z,1.80
2019-06-08T18:16:21.433Z,1.53
2019-06-08T18:18:49.914Z,1.80
2019-06-08T18:21:18.363Z,1.83
2019-06-08T18:23:48.207Z,2.07
2019-06-08T18:26:17.249Z,2.13
2019-06-08T18:28:48.362Z,1.70
2019-06-08T18:31:17.991Z,5.97
2019-06-08T18:33:50.074Z,14.73
2019-06-08T18:36:17.413Z,8.07
2019-06-08T18:38:48.379Z,17.37
2019-06-08T18:41:17.671Z,3.83
2019-06-08T18:43:48.609Z,2.50
2019-06-08T18:46:17.968Z,1.90
2019-06-08T18:48:49.304Z,1.80
2019-06-08T18:51:17.476Z,2.17
2019-06-08T18:54:06.849Z,1.77
2019-06-08T18:56:18.273Z,1.80
2019-06-08T18:58:52.910Z,1.67
2019-06-08T19:01:21.567Z,1.50
2019-06-08T19:03:50.327Z,2.10
2019-06-08T19:06:18.750Z,1.80
2019-06-08T19:09:07.561Z,1.83
2019-06-08T19:11:37.728Z,1.70
2019-06-08T19:14:07.238Z,2.00
2019-06-08T19:16:40.890Z,1.60
2019-06-08T19:19:07.648Z,1.70
2019-06-08T19:21:37.469Z,1.97
2019-06-08T19:24:09.590Z,1.83
2019-06-08T19:26:39.360Z,2.00
2019-06-08T19:29:07.681Z,1.83
2019-06-08T19:31:40.691Z,1.80
2019-06-08T19:34:08.006Z,1.80
2019-06-08T19:36:39.938Z,1.57
2019-06-08T19:39:08.168Z,1.77
2019-06-08T19:41:38.068Z,1.60
2019-06-08T19:44:08.598Z,1.80
2019-06-08T19:46:38.208Z,1.80
2019-06-08T19:49:08.007Z,1.80
2019-06-08T19:51:38.620Z,1.60
2019-06-08T19:54:07.136Z,1.53
2019-06-08T19:56:35.706Z,2.27
2019-06-08T19:59:08.330Z,1.73
2019-06-08T20:01:37.901Z,1.70
2019-06-08T20:04:07.363Z,1.90
2019-06-08T20:06:37.620Z,1.83
2019-06-08T20:09:08.492Z,2.13
2019-06-08T20:11:42.724Z,1.93
2019-06-08T20:14:08.041Z,2.10
2019-06-08T20:16:37.263Z,2.03
2019-06-08T20:19:07.962Z,1.83
2019-06-08T20:21:38.093Z,2.00
2019-06-08T20:24:08.015Z,2.10
2019-06-08T20:26:37.499Z,1.87
2019-06-08T20:29:13.656Z,2.10
2019-06-08T20:31:38.547Z,2.17
2019-06-08T20:34:07.007Z,1.57
2019-06-08T20:36:37.540Z,2.03
2019-06-08T20:39:09.149Z,2.13
2019-06-08T20:41:37.890Z,1.87
2019-06-08T20:44:08.500Z,1.97
2019-06-08T20:46:37.781Z,2.07
2019-06-08T20:49:08.366Z,2.03
2019-06-08T20:51:37.417Z,2.30
2019-06-08T20:54:13.729Z,2.10
2019-06-08T21:03:28.763Z,1.67
2019-06-08T21:05:59.626Z,1.63
2019-06-08T21:09:33.407Z,1.50
2019-06-08T21:11:21.389Z,1.43
2019-06-08T21:14:31.678Z,1.60
2019-06-08T21:16:38.374Z,2.20
2019-06-08T21:19:07.378Z,2.17
2019-06-08T21:21:39.748Z,2.17
2019-06-08T21:24:08.268Z,2.17
2019-06-08T21:26:50.689Z,2.27
2019-06-08T21:29:14.374Z,2.20
2019-06-08T21:31:43.006Z,2.27
2019-06-08T21:34:23.752Z,2.33
2019-06-08T21:36:56.460Z,1.90
2019-06-08T21:39:28.849Z,2.13
2019-06-08T21:42:01.020Z,1.97
2019-06-08T21:44:37.251Z,2.50
2019-06-08T21:47:07.837Z,2.20
2019-06-08T21:49:38.384Z,2.30
2019-06-08T21:52:08.600Z,1.73
2019-06-08T21:54:37.666Z,1.70
2019-06-08T21:57:32.687Z,2.70
2019-06-08T22:00:19.323Z,3.20
2019-06-08T22:02:33.475Z,2.80
2019-06-08T22:05:17.973Z,3.00
2019-06-08T22:07:47.172Z,3.27
2019-06-08T22:10:17.941Z,2.97
2019-06-08T22:12:53.832Z,2.67
2019-06-08T22:15:23.334Z,2.13
2019-06-08T22:17:55.296Z,2.53
2019-06-08T22:20:24.110Z,2.63
2019-06-08T22:22:53.358Z,3.13
2019-06-08T22:25:22.121Z,3.53
2019-06-08T22:27:51.075Z,3.43
2019-06-08T22:34:03.986Z,3.17
2019-06-08T22:36:32.826Z,3.60
2019-06-08T22:39:02.684Z,3.23
2019-06-08T22:41:31.818Z,3.03
2019-06-08T22:44:00.942Z,3.43
2019-06-08T22:46:29.789Z,3.07
2019-06-08T22:49:01.157Z,3.07
2019-06-08T22:51:28.794Z,3.00
2019-06-08T22:53:59.234Z,3.10
2019-06-08T22:56:27.963Z,3.00
2019-06-08T22:59:00.556Z,3.10
2019-06-08T23:01:27.829Z,3.20
2019-06-08T23:03:59.370Z,3.00
2019-06-08T23:06:28.096Z,2.97
2019-06-08T23:08:59.897Z,3.40
2019-06-08T23:11:28.473Z,2.93
2019-06-08T23:14:01.039Z,3.00
2019-06-08T23:16:29.833Z,3.50
2019-06-08T23:19:00.283Z,2.93
2019-06-08T23:21:29.685Z,2.80
2019-06-08T23:24:00.641Z,3.27
2019-06-08T23:26:28.433Z,3.10
2019-06-08T23:28:58.071Z,2.70
2019-06-08T23:31:29.032Z,2.73
2019-06-08T23:33:59.650Z,2.70
2019-06-08T23:36:47.105Z,2.80
2019-06-08T23:38:57.420Z,2.97
2019-06-08T23:41:27.252Z,2.80
2019-06-08T23:43:57.370Z,2.73
2019-06-08T23:46:27.395Z,2.70
2019-06-08T23:48:58.899Z,2.80
2019-06-08T23:51:27.552Z,2.63
2019-06-08T23:53:58.314Z,2.80
2019-06-08T23:56:27.699Z,2.90
2019-06-08T23:58:57.098Z,2.70
